Airport ID:CYTF
Update Time (UTC):07/07/2022 06:37
Wind Speed (Knots):1
Wind Direction (Magnetic):170
Temperature (°C):7.3
Dew Point (°C):5.8
Humidity (%):90
Altimeter (inHg):30.04
Density Altitude (Feet):\\\\
Visibility (Miles):6
Clouds (Hundreds of feet):NCD
Present Weather:
METAR:METAR CYTF 070630Z AUTO 00000KT 10SM NCD 08/06 A3003

The data displayed is for advisory purposes only and is not to be used for flight planning or operations.

This page is not automatically refreshed. Reload the page to see current data.